sensor_id;sensor_type;location;lat;lon;timestamp;pressure;altitude;pressure_sealevel;temperature;humidity
8697;BME280;4385;48.848;8.924;2022-10-18T00:00:45;98301.88;;;19.57;100.00
8697;BME280;4385;48.848;8.924;2022-10-18T00:03:10;98297.59;;;19.59;100.00
8697;BME280;4385;48.848;8.924;2022-10-18T00:05:36;98311.22;;;19.61;100.00
8697;BME280;4385;48.848;8.924;2022-10-18T00:08:01;98298.44;;;19.61;100.00
8697;BME280;4385;48.848;8.924;2022-10-18T00:10:27;98295.88;;;19.61;100.00
8697;BME280;4385;48.848;8.924;2022-10-18T00:12:52;98294.19;;;19.59;100.00
8697;BME280;4385;48.848;8.924;2022-10-18T00:15:18;98297.59;;;19.59;100.00
8697;BME280;4385;48.848;8.924;2022-10-18T00:17:43;98290.81;;;19.56;100.00
8697;BME280;4385;48.848;8.924;2022-10-18T00:20:09;98301.06;;;19.56;100.00
8697;BME280;4385;48.848;8.924;2022-10-18T00:22:37;98305.28;;;19.58;100.00
8697;BME280;4385;48.848;8.924;2022-10-18T00:25:04;98301.91;;;19.55;100.00
8697;BME280;4385;48.848;8.924;2022-10-18T00:27:30;98298.50;;;19.55;100.00
8697;BME280;4385;48.848;8.924;2022-10-18T00:29:55;98300.22;;;19.54;100.00
8697;BME280;4385;48.848;8.924;2022-10-18T00:32:20;98292.53;;;19.54;100.00
8697;BME280;4385;48.848;8.924;2022-10-18T00:34:46;98294.22;;;19.55;100.00
8697;BME280;4385;48.848;8.924;2022-10-18T00:37:11;98297.66;;;19.54;100.00
8697;BME280;4385;48.848;8.924;2022-10-18T00:39:37;98299.38;;;19.52;100.00
8697;BME280;4385;48.848;8.924;2022-10-18T00:42:02;98290.88;;;19.53;100.00
8697;BME280;4385;48.848;8.924;2022-10-18T00:46:57;98293.44;;;19.52;100.00
8697;BME280;4385;48.848;8.924;2022-10-18T00:49:27;98304.50;;;19.52;100.00
8697;BME280;4385;48.848;8.924;2022-10-18T00:54:22;98296.03;;;19.50;100.00
8697;BME280;4385;48.848;8.924;2022-10-18T00:56:48;98294.31;;;19.49;100.00
8697;BME280;4385;48.848;8.924;2022-10-18T00:59:15;98290.94;;;19.47;100.00
8697;BME280;4385;48.848;8.924;2022-10-18T01:01:41;98296.91;;;19.46;100.00
8697;BME280;4385;48.848;8.924;2022-10-18T01:04:06;98294.38;;;19.44;100.00
8697;BME280;4385;48.848;8.924;2022-10-18T01:06:38;98301.22;;;19.44;100.00
8697;BME280;4385;48.848;8.924;2022-10-18T01:09:19;98300.38;;;19.42;100.00
8697;BME280;4385;48.848;8.924;2022-10-18T01:12:06;98298.69;;;19.42;100.00
8697;BME280;4385;48.848;8.924;2022-10-18T01:14:58;98293.59;;;19.41;100.00
8697;BME280;4385;48.848;8.924;2022-10-18T01:17:36;98299.53;;;19.40;100.00
8697;BME280;4385;48.848;8.924;2022-10-18T01:20:22;98305.53;;;19.39;100.00
8697;BME280;4385;48.848;8.924;2022-10-18T01:23:02;98297.88;;;19.39;100.00
8697;BME280;4385;48.848;8.924;2022-10-18T01:25:41;98302.97;;;19.39;100.00
8697;BME280;4385;48.848;8.924;2022-10-18T01:28:14;98306.41;;;19.38;100.00
8697;BME280;4385;48.848;8.924;2022-10-18T01:30:48;98304.69;;;19.38;100.00
8697;BME280;4385;48.848;8.924;2022-10-18T01:36:08;98300.41;;;19.39;100.00
8697;BME280;4385;48.848;8.924;2022-10-18T01:38:39;98301.28;;;19.38;100.00
8697;BME280;4385;48.848;8.924;2022-10-18T01:41:06;98300.44;;;19.37;100.00
8697;BME280;4385;48.848;8.924;2022-10-18T01:43:33;98308.09;;;19.39;100.00
8697;BME280;4385;48.848;8.924;2022-10-18T01:46:02;98297.00;;;19.38;100.00
8697;BME280;4385;48.848;8.924;2022-10-18T01:48:28;98297.88;;;19.39;100.00
8697;BME280;4385;48.848;8.924;2022-10-18T01:50:55;98301.28;;;19.39;100.00
8697;BME280;4385;48.848;8.924;2022-10-18T01:53:32;98289.31;;;19.40;100.00
8697;BME280;4385;48.848;8.924;2022-10-18T01:56:15;98292.72;;;19.40;100.00
8697;BME280;4385;48.848;8.924;2022-10-18T02:01:24;98292.72;;;19.42;100.00
8697;BME280;4385;48.848;8.924;2022-10-18T02:03:55;98291.84;;;19.41;100.00
8697;BME280;4385;48.848;8.924;2022-10-18T02:06:27;98289.28;;;19.43;100.00
8697;BME280;4385;48.848;8.924;2022-10-18T02:09:11;98278.22;;;19.44;100.00
8697;BME280;4385;48.848;8.924;2022-10-18T02:11:40;98280.75;;;19.44;100.00
8697;BME280;4385;48.848;8.924;2022-10-18T02:14:10;98281.56;;;19.46;100.00
8697;BME280;4385;48.848;8.924;2022-10-18T02:19:09;98273.91;;;19.46;100.00
8697;BME280;4385;48.848;8.924;2022-10-18T02:21:37;98270.50;;;19.47;100.00
8697;BME280;4385;48.848;8.924;2022-10-18T02:24:04;98273.06;;;19.47;100.00
8697;BME280;4385;48.848;8.924;2022-10-18T02:26:31;98270.50;;;19.47;100.00
8697;BME280;4385;48.848;8.924;2022-10-18T02:28:56;98263.69;;;19.46;100.00
8697;BME280;4385;48.848;8.924;2022-10-18T02:31:40;98258.56;;;19.46;100.00
8697;BME280;4385;48.848;8.924;2022-10-18T02:39:42;98258.56;;;19.46;100.00
8697;BME280;4385;48.848;8.924;2022-10-18T02:42:10;98250.94;;;19.43;100.00
8697;BME280;4385;48.848;8.924;2022-10-18T02:44:36;98256.19;;;19.32;100.00
8697;BME280;4385;48.848;8.924;2022-10-18T02:47:04;98256.06;;;19.41;100.00
8697;BME280;4385;48.848;8.924;2022-10-18T02:49:29;98259.47;;;19.43;100.00
8697;BME280;4385;48.848;8.924;2022-10-18T02:51:55;98260.31;;;19.44;100.00
8697;BME280;4385;48.848;8.924;2022-10-18T02:54:21;98253.63;;;19.34;100.00
8697;BME280;4385;48.848;8.924;2022-10-18T02:56:46;98255.38;;;19.31;100.00
8697;BME280;4385;48.848;8.924;2022-10-18T02:59:12;98257.00;;;19.36;100.00
8697;BME280;4385;48.848;8.924;2022-10-18T03:01:37;98263.81;;;19.37;100.00
8697;BME280;4385;48.848;8.924;2022-10-18T03:04:03;98261.22;;;19.38;100.00
8697;BME280;4385;48.848;8.924;2022-10-18T03:06:29;98259.50;;;19.40;100.00
8697;BME280;4385;48.848;8.924;2022-10-18T03:08:54;98265.47;;;19.41;100.00
8697;BME280;4385;48.848;8.924;2022-10-18T03:11:20;98260.53;;;19.28;100.00
8697;BME280;4385;48.848;8.924;2022-10-18T03:13:45;98262.22;;;19.29;100.00
8697;BME280;4385;48.848;8.924;2022-10-18T03:16:11;98260.53;;;19.28;100.00
8697;BME280;4385;48.848;8.924;2022-10-18T03:18:36;98263.00;;;19.35;100.00
8697;BME280;4385;48.848;8.924;2022-10-18T03:21:05;98257.00;;;19.36;100.00
8697;BME280;4385;48.848;8.924;2022-10-18T03:23:31;98259.56;;;19.36;100.00
8697;BME280;4385;48.848;8.924;2022-10-18T03:25:56;98259.56;;;19.36;100.00
8697;BME280;4385;48.848;8.924;2022-10-18T03:28:21;98257.03;;;19.34;100.00
8697;BME280;4385;48.848;8.924;2022-10-18T03:30:46;98259.59;;;19.34;100.00
8697;BME280;4385;48.848;8.924;2022-10-18T03:33:12;98253.63;;;19.34;100.00
8697;BME280;4385;48.848;8.924;2022-10-18T03:35:37;98253.59;;;19.37;100.00
8697;BME280;4385;48.848;8.924;2022-10-18T03:38:02;98248.50;;;19.35;100.00
8697;BME280;4385;48.848;8.924;2022-10-18T03:40:27;98248.50;;;19.34;100.00
8697;BME280;4385;48.848;8.924;2022-10-18T03:42:53;98246.78;;;19.36;100.00
8697;BME280;4385;48.848;8.924;2022-10-18T03:45:18;98243.34;;;19.37;100.00
8697;BME280;4385;48.848;8.924;2022-10-18T03:47:43;98247.66;;;19.36;100.00
8697;BME280;4385;48.848;8.924;2022-10-18T03:50:09;98249.31;;;19.37;100.00
8697;BME280;4385;48.848;8.924;2022-10-18T03:52:34;98258.69;;;19.37;100.00
8697;BME280;4385;48.848;8.924;2022-10-18T03:54:59;98258.69;;;19.37;100.00
8697;BME280;4385;48.848;8.924;2022-10-18T03:57:25;98262.97;;;19.38;100.00
8697;BME280;4385;48.848;8.924;2022-10-18T03:59:50;98265.50;;;19.38;100.00
8697;BME280;4385;48.848;8.924;2022-10-18T04:02:15;98270.63;;;19.38;100.00
8697;BME280;4385;48.848;8.924;2022-10-18T04:04:41;98270.63;;;19.38;100.00
8697;BME280;4385;48.848;8.924;2022-10-18T04:07:06;98259.56;;;19.37;100.00
8697;BME280;4385;48.848;8.924;2022-10-18T04:09:31;98260.41;;;19.38;100.00
8697;BME280;4385;48.848;8.924;2022-10-18T04:11:56;98263.78;;;19.38;100.00
8697;BME280;4385;48.848;8.924;2022-10-18T04:14:22;98262.97;;;19.38;100.00
8697;BME280;4385;48.848;8.924;2022-10-18T04:16:47;98272.31;;;19.39;100.00
8697;BME280;4385;48.848;8.924;2022-10-18T04:19:12;98272.31;;;19.39;100.00
8697;BME280;4385;48.848;8.924;2022-10-18T04:21:38;98273.19;;;19.38;100.00
8697;BME280;4385;48.848;8.924;2022-10-18T04:24:03;98280.84;;;19.38;100.00
8697;BME280;4385;48.848;8.924;2022-10-18T04:26:29;98277.41;;;19.39;100.00
8697;BME280;4385;48.848;8.924;2022-10-18T04:28:54;98275.72;;;19.39;100.00
8697;BME280;4385;48.848;8.924;2022-10-18T04:31:19;98279.97;;;19.39;100.00
8697;BME280;4385;48.848;8.924;2022-10-18T04:33:45;98285.09;;;19.39;100.00
8697;BME280;4385;48.848;8.924;2022-10-18T04:36:10;98285.09;;;19.39;100.00
8697;BME280;4385;48.848;8.924;2022-10-18T04:38:35;98285.09;;;19.37;100.00
8697;BME280;4385;48.848;8.924;2022-10-18T04:41:00;98283.44;;;19.36;100.00
8697;BME280;4385;48.848;8.924;2022-10-18T04:43:26;98286.00;;;19.35;100.00
8697;BME280;4385;48.848;8.924;2022-10-18T04:45:51;98290.25;;;19.34;100.00
8697;BME280;4385;48.848;8.924;2022-10-18T04:48:17;98294.50;;;19.34;100.00
8697;BME280;4385;48.848;8.924;2022-10-18T04:50:42;98291.97;;;19.32;100.00
8697;BME280;4385;48.848;8.924;2022-10-18T04:53:08;98285.19;;;19.31;100.00
8697;BME280;4385;48.848;8.924;2022-10-18T04:55:33;98286.06;;;19.30;100.00
8697;BME280;4385;48.848;8.924;2022-10-18T04:57:59;98282.66;;;19.29;100.00
8697;BME280;4385;48.848;8.924;2022-10-18T05:00:24;98289.47;;;19.29;100.00
8697;BME280;4385;48.848;8.924;2022-10-18T05:02:55;98289.47;;;19.27;100.00
8697;BME280;4385;48.848;8.924;2022-10-18T05:05:20;98297.13;;;19.29;100.00
8697;BME280;4385;48.848;8.924;2022-10-18T05:07:45;98286.09;;;19.28;100.00
8697;BME280;4385;48.848;8.924;2022-10-18T05:10:11;98296.22;;;19.35;100.00
8697;BME280;4385;48.848;8.924;2022-10-18T05:12:36;98291.13;;;19.35;100.00
8697;BME280;4385;48.848;8.924;2022-10-18T05:15:01;98291.13;;;19.35;100.00
8697;BME280;4385;48.848;8.924;2022-10-18T05:17:26;98288.56;;;19.35;100.00
8697;BME280;4385;48.848;8.924;2022-10-18T05:19:52;98293.66;;;19.36;100.00
8697;BME280;4385;48.848;8.924;2022-10-18T05:22:17;98292.78;;;19.36;100.00
8697;BME280;4385;48.848;8.924;2022-10-18T05:24:42;98293.66;;;19.35;100.00
8697;BME280;4385;48.848;8.924;2022-10-18T05:27:07;98291.28;;;19.22;100.00
8697;BME280;4385;48.848;8.924;2022-10-18T05:29:35;98295.50;;;19.23;100.00
8697;BME280;4385;48.848;8.924;2022-10-18T05:32:00;98292.97;;;19.22;100.00
8697;BME280;4385;48.848;8.924;2022-10-18T05:34:25;98281.06;;;19.21;100.00
8697;BME280;4385;48.848;8.924;2022-10-18T05:36:51;98283.63;;;19.21;100.00
8697;BME280;4385;48.848;8.924;2022-10-18T05:39:16;98287.00;;;19.21;100.00
8697;BME280;4385;48.848;8.924;2022-10-18T05:41:42;98281.91;;;19.21;100.00
8697;BME280;4385;48.848;8.924;2022-10-18T05:44:07;98284.44;;;19.21;100.00
8697;BME280;4385;48.848;8.924;2022-10-18T05:46:32;98282.78;;;19.20;100.00
8697;BME280;4385;48.848;8.924;2022-10-18T05:48:58;98281.91;;;19.19;100.00
8697;BME280;4385;48.848;8.924;2022-10-18T05:51:23;98287.88;;;19.20;100.00
8697;BME280;4385;48.848;8.924;2022-10-18T05:53:48;98282.78;;;19.20;100.00
8697;BME280;4385;48.848;8.924;2022-10-18T05:56:13;98281.06;;;19.22;100.00
8697;BME280;4385;48.848;8.924;2022-10-18T05:58:40;98288.66;;;19.27;100.00
8697;BME280;4385;48.848;8.924;2022-10-18T06:01:06;98292.88;;;19.29;100.00
8697;BME280;4385;48.848;8.924;2022-10-18T06:03:32;98303.09;;;19.29;100.00
8697;BME280;4385;48.848;8.924;2022-10-18T06:06:08;98298.84;;;19.30;100.00
8697;BME280;4385;48.848;8.924;2022-10-18T06:08:34;98287.75;;;19.29;100.00
8697;BME280;4385;48.848;8.924;2022-10-18T06:11:08;98287.78;;;19.28;100.00
8697;BME280;4385;48.848;8.924;2022-10-18T06:13:38;98289.47;;;19.27;100.00
8697;BME280;4385;48.848;8.924;2022-10-18T06:16:04;98292.06;;;19.26;100.00
8697;BME280;4385;48.848;8.924;2022-10-18T06:18:29;98292.06;;;19.24;100.00
8697;BME280;4385;48.848;8.924;2022-10-18T06:20:56;98297.19;;;19.24;100.00
8697;BME280;4385;48.848;8.924;2022-10-18T06:23:21;98298.94;;;19.22;100.00
8697;BME280;4385;48.848;8.924;2022-10-18T06:25:46;98297.22;;;19.21;100.00
8697;BME280;4385;48.848;8.924;2022-10-18T06:28:12;98297.25;;;19.19;100.00
8697;BME280;4385;48.848;8.924;2022-10-18T06:30:37;98298.09;;;19.20;100.00
8697;BME280;4385;48.848;8.924;2022-10-18T06:33:02;98303.16;;;19.23;100.00
8697;BME280;4385;48.848;8.924;2022-10-18T06:35:28;98304.88;;;19.21;100.00
8697;BME280;4385;48.848;8.924;2022-10-18T06:37:53;98303.22;;;19.20;100.00
8697;BME280;4385;48.848;8.924;2022-10-18T06:40:18;98303.22;;;19.20;100.00
8697;BME280;4385;48.848;8.924;2022-10-18T06:42:43;98301.50;;;19.21;100.00
8697;BME280;4385;48.848;8.924;2022-10-18T06:45:10;98301.53;;;19.19;100.00
8697;BME280;4385;48.848;8.924;2022-10-18T06:47:36;98303.22;;;19.20;100.00
8697;BME280;4385;48.848;8.924;2022-10-18T06:50:01;98301.50;;;19.21;100.00
8697;BME280;4385;48.848;8.924;2022-10-18T06:52:26;98298.09;;;19.22;100.00
8697;BME280;4385;48.848;8.924;2022-10-18T06:54:51;98298.09;;;19.20;100.00
8697;BME280;4385;48.848;8.924;2022-10-18T06:57:19;98305.75;;;19.20;100.00
8697;BME280;4385;48.848;8.924;2022-10-18T06:59:44;98306.63;;;19.19;100.00
8697;BME280;4385;48.848;8.924;2022-10-18T07:02:14;98310.03;;;19.18;100.00
8697;BME280;4385;48.848;8.924;2022-10-18T07:04:40;98310.91;;;19.17;100.00
8697;BME280;4385;48.848;8.924;2022-10-18T07:07:05;98320.25;;;19.18;100.00
8697;BME280;4385;48.848;8.924;2022-10-18T07:09:30;98322.00;;;19.17;100.00
8697;BME280;4385;48.848;8.924;2022-10-18T07:11:56;98322.00;;;19.17;100.00
8697;BME280;4385;48.848;8.924;2022-10-18T07:14:21;98322.81;;;19.18;100.00
8697;BME280;4385;48.848;8.924;2022-10-18T07:16:46;98327.09;;;19.19;100.00
8697;BME280;4385;48.848;8.924;2022-10-18T07:19:11;98337.28;;;19.21;100.00
8697;BME280;4385;48.848;8.924;2022-10-18T07:21:37;98328.75;;;19.20;100.00
8697;BME280;4385;48.848;8.924;2022-10-18T07:24:03;98321.06;;;19.22;100.00
8697;BME280;4385;48.848;8.924;2022-10-18T07:26:30;98317.66;;;19.23;100.00
8697;BME280;4385;48.848;8.924;2022-10-18T07:29:10;98323.63;;;19.23;100.00
8697;BME280;4385;48.848;8.924;2022-10-18T07:31:36;98320.19;;;19.24;100.00
8697;BME280;4385;48.848;8.924;2022-10-18T07:34:03;98321.03;;;19.25;100.00
8697;BME280;4385;48.848;8.924;2022-10-18T07:36:29;98313.38;;;19.25;100.00
8697;BME280;4385;48.848;8.924;2022-10-18T07:38:54;98319.34;;;19.24;100.00
8697;BME280;4385;48.848;8.924;2022-10-18T07:41:20;98321.06;;;19.23;100.00
8697;BME280;4385;48.848;8.924;2022-10-18T07:43:47;98329.59;;;19.24;100.00
8697;BME280;4385;48.848;8.924;2022-10-18T07:46:14;98326.19;;;19.22;100.00
8697;BME280;4385;48.848;8.924;2022-10-18T07:48:39;98332.16;;;19.22;100.00
8697;BME280;4385;48.848;8.924;2022-10-18T07:51:05;98330.41;;;19.23;100.00
8697;BME280;4385;48.848;8.924;2022-10-18T07:53:30;98336.34;;;19.26;100.00
8697;BME280;4385;48.848;8.924;2022-10-18T07:56:07;98341.44;;;19.29;100.00
8697;BME280;4385;48.848;8.924;2022-10-18T07:58:36;98341.38;;;19.34;100.00
8697;BME280;4385;48.848;8.924;2022-10-18T08:01:05;98336.28;;;19.33;100.00
8697;BME280;4385;48.848;8.924;2022-10-18T08:03:31;98344.81;;;19.33;100.00
8697;BME280;4385;48.848;8.924;2022-10-18T08:05:57;98350.75;;;19.34;100.00
8697;BME280;4385;48.848;8.924;2022-10-18T08:08:23;98350.75;;;19.34;100.00
8697;BME280;4385;48.848;8.924;2022-10-18T08:10:49;98355.00;;;19.35;100.00
8697;BME280;4385;48.848;8.924;2022-10-18T08:13:15;98359.25;;;19.36;100.00
8697;BME280;4385;48.848;8.924;2022-10-18T08:15:40;98358.38;;;19.35;100.00
8697;BME280;4385;48.848;8.924;2022-10-18T08:18:08;98353.34;;;19.30;100.00
8697;BME280;4385;48.848;8.924;2022-10-18T08:20:34;98372.06;;;19.31;100.00
8697;BME280;4385;48.848;8.924;2022-10-18T08:23:01;98366.09;;;19.30;100.00
8697;BME280;4385;48.848;8.924;2022-10-18T08:25:28;98366.09;;;19.30;100.00
8697;BME280;4385;48.848;8.924;2022-10-18T08:27:53;98351.66;;;19.29;100.00
8697;BME280;4385;48.848;8.924;2022-10-18T08:30:18;98361.88;;;19.29;100.00
8697;BME280;4385;48.848;8.924;2022-10-18T08:32:44;98366.09;;;19.30;100.00
8697;BME280;4385;48.848;8.924;2022-10-18T08:35:09;98362.75;;;19.28;100.00
8697;BME280;4385;48.848;8.924;2022-10-18T08:37:34;98378.88;;;19.30;100.00
8697;BME280;4385;48.848;8.924;2022-10-18T08:39:59;98366.94;;;19.33;100.00
8697;BME280;4385;48.848;8.924;2022-10-18T08:45:04;98371.19;;;19.34;100.00
8697;BME280;4385;48.848;8.924;2022-10-18T08:47:34;98370.34;;;19.35;100.00
8697;BME280;4385;48.848;8.924;2022-10-18T08:50:07;98376.28;;;19.34;100.00
8697;BME280;4385;48.848;8.924;2022-10-18T08:55:35;98389.94;;;19.34;100.00
8697;BME280;4385;48.848;8.924;2022-10-18T08:58:06;98386.50;;;19.34;100.00
8697;BME280;4385;48.848;8.924;2022-10-18T09:00:39;98395.06;;;19.33;100.00
8697;BME280;4385;48.848;8.924;2022-10-18T09:06:17;98395.06;;;19.33;100.00
8697;BME280;4385;48.848;8.924;2022-10-18T09:11:46;98384.00;;;19.29;100.00
8697;BME280;4385;48.848;8.924;2022-10-18T09:25:16;98391.66;;;19.32;100.00
8697;BME280;4385;48.848;8.924;2022-10-18T09:27:50;98393.38;;;19.31;100.00
8697;BME280;4385;48.848;8.924;2022-10-18T09:30:31;98389.94;;;19.33;100.00
8697;BME280;4385;48.848;8.924;2022-10-18T09:33:11;98382.28;;;19.31;100.00
8697;BME280;4385;48.848;8.924;2022-10-18T09:35:43;98388.25;;;19.33;100.00
8697;BME280;4385;48.848;8.924;2022-10-18T09:38:15;98378.84;;;19.34;100.00
8697;BME280;4385;48.848;8.924;2022-10-18T09:41:12;98383.13;;;19.35;100.00
8697;BME280;4385;48.848;8.924;2022-10-18T09:43:57;98381.38;;;19.35;100.00
8697;BME280;4385;48.848;8.924;2022-10-18T09:46:28;98383.13;;;19.35;100.00
8697;BME280;4385;48.848;8.924;2022-10-18T09:49:21;98385.66;;;19.35;100.00
8697;BME280;4385;48.848;8.924;2022-10-18T09:51:48;98389.06;;;19.35;100.00
8697;BME280;4385;48.848;8.924;2022-10-18T09:54:30;98387.38;;;19.34;100.00
8697;BME280;4385;48.848;8.924;2022-10-18T09:57:04;98390.78;;;19.35;100.00
8697;BME280;4385;48.848;8.924;2022-10-18T10:02:01;98384.84;;;19.33;100.00
8697;BME280;4385;48.848;8.924;2022-10-18T10:04:27;98394.19;;;19.34;100.00
8697;BME280;4385;48.848;8.924;2022-10-18T10:06:54;98391.63;;;19.34;100.00
8697;BME280;4385;48.848;8.924;2022-10-18T10:09:25;98386.50;;;19.34;100.00
8697;BME280;4385;48.848;8.924;2022-10-18T10:11:51;98389.91;;;19.36;100.00
8697;BME280;4385;48.848;8.924;2022-10-18T10:14:22;98394.19;;;19.34;100.00
8697;BME280;4385;48.848;8.924;2022-10-18T10:19:26;98402.69;;;19.34;100.00
8697;BME280;4385;48.848;8.924;2022-10-18T10:22:05;98401.84;;;19.34;100.00
8697;BME280;4385;48.848;8.924;2022-10-18T10:27:27;98404.38;;;19.37;100.00
8697;BME280;4385;48.848;8.924;2022-10-18T10:29:55;98399.25;;;19.37;100.00
8697;BME280;4385;48.848;8.924;2022-10-18T10:32:23;98396.69;;;19.37;100.00
8697;BME280;4385;48.848;8.924;2022-10-18T10:34:49;98397.56;;;19.37;100.00
8697;BME280;4385;48.848;8.924;2022-10-18T10:37:35;98393.28;;;19.39;100.00
8697;BME280;4385;48.848;8.924;2022-10-18T10:40:09;98394.13;;;19.40;100.00
8697;BME280;4385;48.848;8.924;2022-10-18T10:42:50;98388.16;;;19.41;100.00
8697;BME280;4385;48.848;8.924;2022-10-18T10:45:16;98385.63;;;19.39;100.00
8697;BME280;4385;48.848;8.924;2022-10-18T10:47:41;98388.16;;;19.41;100.00
8697;BME280;4385;48.848;8.924;2022-10-18T10:50:11;98388.16;;;19.41;100.00
8697;BME280;4385;48.848;8.924;2022-10-18T10:52:37;98388.16;;;19.41;100.00
8697;BME280;4385;48.848;8.924;2022-10-18T10:55:05;98389.84;;;19.42;100.00
8697;BME280;4385;48.848;8.924;2022-10-18T10:57:43;98388.13;;;19.44;100.00
8697;BME280;4385;48.848;8.924;2022-10-18T11:05:47;98386.38;;;19.46;100.00
8697;BME280;4385;48.848;8.924;2022-10-18T11:08:18;98371.88;;;19.47;100.00
8697;BME280;4385;48.848;8.924;2022-10-18T11:11:08;98373.59;;;19.46;100.00
8697;BME280;4385;48.848;8.924;2022-10-18T11:13:48;98367.63;;;19.47;100.00
8697;BME280;4385;48.848;8.924;2022-10-18T11:16:36;98371.88;;;19.48;100.00
8697;BME280;4385;48.848;8.924;2022-10-18T11:19:26;98369.31;;;19.48;100.00
8697;BME280;4385;48.848;8.924;2022-10-18T11:21:53;98374.44;;;19.48;100.00
8697;BME280;4385;48.848;8.924;2022-10-18T11:24:19;98376.09;;;19.49;100.00
8697;BME280;4385;48.848;8.924;2022-10-18T11:27:05;98383.78;;;19.49;100.00
8697;BME280;4385;48.848;8.924;2022-10-18T11:29:44;98380.38;;;19.50;100.00
8697;BME280;4385;48.848;8.924;2022-10-18T11:35:15;98389.69;;;19.54;100.00
8697;BME280;4385;48.848;8.924;2022-10-18T11:38:14;98381.16;;;19.55;100.00
8697;BME280;4385;48.848;8.924;2022-10-18T11:41:11;98388.84;;;19.54;100.00
8697;BME280;4385;48.848;8.924;2022-10-18T11:43:54;98382.91;;;19.53;100.00
8697;BME280;4385;48.848;8.924;2022-10-18T11:47:24;98386.28;;;19.54;100.00
8697;BME280;4385;48.848;8.924;2022-10-18T11:49:45;98388.00;;;19.55;100.00
8697;BME280;4385;48.848;8.924;2022-10-18T11:52:24;98387.06;;;19.61;100.00
8697;BME280;4385;48.848;8.924;2022-10-18T12:00:49;98388.72;;;19.63;100.00
8697;BME280;4385;48.848;8.924;2022-10-18T12:03:36;98388.72;;;19.63;100.00
8697;BME280;4385;48.848;8.924;2022-10-18T12:06:09;98392.13;;;19.65;100.00
8697;BME280;4385;48.848;8.924;2022-10-18T12:08:40;98379.31;;;19.67;100.00
8697;BME280;4385;48.848;8.924;2022-10-18T12:11:14;98386.09;;;19.68;100.00
8697;BME280;4385;48.848;8.924;2022-10-18T12:16:11;98379.97;;;19.81;100.00
8697;BME280;4385;48.848;8.924;2022-10-18T12:21:19;98379.09;;;19.83;100.00
8697;BME280;4385;48.848;8.924;2022-10-18T12:23:58;98374.94;;;19.77;100.00
8697;BME280;4385;48.848;8.924;2022-10-18T12:26:26;98375.78;;;19.74;100.00
8697;BME280;4385;48.848;8.924;2022-10-18T12:31:53;98377.41;;;19.81;100.00
8697;BME280;4385;48.848;8.924;2022-10-18T12:37:11;98380.75;;;19.87;100.00
8697;BME280;4385;48.848;8.924;2022-10-18T12:39:42;98378.97;;;19.92;100.00
8697;BME280;4385;48.848;8.924;2022-10-18T12:42:22;98379.84;;;19.92;100.00
8697;BME280;4385;48.848;8.924;2022-10-18T12:45:02;98382.41;;;19.91;100.00
8697;BME280;4385;48.848;8.924;2022-10-18T12:47:28;98373.03;;;19.90;100.00
8697;BME280;4385;48.848;8.924;2022-10-18T12:49:59;98366.31;;;19.83;100.00
8697;BME280;4385;48.848;8.924;2022-10-18T12:52:28;98368.06;;;19.79;100.00
8697;BME280;4385;48.848;8.924;2022-10-18T13:21:24;98362.06;;;19.81;100.00
8697;BME280;4385;48.848;8.924;2022-10-18T13:26:44;98363.75;;;19.83;100.00
8697;BME280;4385;48.848;8.924;2022-10-18T13:32:02;98364.59;;;19.85;100.00
8697;BME280;4385;48.848;8.924;2022-10-18T13:34:33;98370.50;;;19.87;100.00
8697;BME280;4385;48.848;8.924;2022-10-18T13:37:05;98361.13;;;19.87;100.00
8697;BME280;4385;48.848;8.924;2022-10-18T13:39:42;98360.25;;;19.88;100.00
8697;BME280;4385;48.848;8.924;2022-10-18T13:44:41;98360.09;;;19.99;100.00
8697;BME280;4385;48.848;8.924;2022-10-18T13:47:10;98355.91;;;19.95;100.00
8697;BME280;4385;48.848;8.924;2022-10-18T14:06:22;98365.34;;;19.91;100.00
8697;BME280;4385;48.848;8.924;2022-10-18T14:09:13;98369.63;;;19.91;100.00
8697;BME280;4385;48.848;8.924;2022-10-18T14:11:44;98372.19;;;19.91;100.00
8697;BME280;4385;48.848;8.924;2022-10-18T14:14:32;98371.31;;;19.92;100.00
8697;BME280;4385;48.848;8.924;2022-10-18T14:22:39;98379.78;;;19.96;100.00
8697;BME280;4385;48.848;8.924;2022-10-18T14:25:22;98383.16;;;19.96;100.00
8697;BME280;4385;48.848;8.924;2022-10-18T14:28:02;98384.06;;;19.95;100.00
8697;BME280;4385;48.848;8.924;2022-10-18T14:30:27;98380.63;;;19.94;100.00
8697;BME280;4385;48.848;8.924;2022-10-18T14:32:53;98384.06;;;19.95;100.00
8697;BME280;4385;48.848;8.924;2022-10-18T14:35:20;98390.81;;;19.98;100.00
8697;BME280;4385;48.848;8.924;2022-10-18T14:37:49;98379.78;;;19.96;100.00
8697;BME280;4385;48.848;8.924;2022-10-18T14:40:36;98382.31;;;19.97;100.00
8697;BME280;4385;48.848;8.924;2022-10-18T14:43:14;98376.41;;;19.93;100.00
8697;BME280;4385;48.848;8.924;2022-10-18T14:45:42;98375.53;;;19.93;100.00
8697;BME280;4385;48.848;8.924;2022-10-18T14:48:20;98373.78;;;19.98;100.00
8697;BME280;4385;48.848;8.924;2022-10-18T14:50:49;98377.22;;;19.97;100.00
8697;BME280;4385;48.848;8.924;2022-10-18T14:53:23;98382.00;;;20.22;100.00
8697;BME280;4385;48.848;8.924;2022-10-18T14:55:54;98381.38;;;20.04;100.00
8697;BME280;4385;48.848;8.924;2022-10-18T14:58:20;98383.97;;;20.01;100.00
8697;BME280;4385;48.848;8.924;2022-10-18T15:00:46;98381.41;;;20.01;100.00
8697;BME280;4385;48.848;8.924;2022-10-18T15:03:13;98385.69;;;19.99;100.00
8697;BME280;4385;48.848;8.924;2022-10-18T15:06:00;98390.00;;;19.97;100.00
8697;BME280;4385;48.848;8.924;2022-10-18T15:08:35;98387.44;;;19.97;100.00
8697;BME280;4385;48.848;8.924;2022-10-18T15:11:02;98384.84;;;20.02;100.00
8697;BME280;4385;48.848;8.924;2022-10-18T15:13:30;98383.84;;;20.11;100.00
8697;BME280;4385;48.848;8.924;2022-10-18T15:15:56;98382.97;;;20.13;100.00
8697;BME280;4385;48.848;8.924;2022-10-18T15:18:25;98387.22;;;20.16;100.00
8697;BME280;4385;48.848;8.924;2022-10-18T15:23:41;98387.22;;;20.16;100.00
8697;BME280;4385;48.848;8.924;2022-10-18T15:26:11;98393.16;;;20.16;100.00
8697;BME280;4385;48.848;8.924;2022-10-18T15:28:41;98380.38;;;20.15;100.00
8697;BME280;4385;48.848;8.924;2022-10-18T15:33:49;98377.81;;;20.15;100.00
8697;BME280;4385;48.848;8.924;2022-10-18T15:36:26;98391.50;;;20.12;100.00
8697;BME280;4385;48.848;8.924;2022-10-18T15:39:03;98381.28;;;20.12;100.00